Time,TemperatureF,DewpointF,PressureIn,WindDirection,WindDirectionDegrees,WindSpeedMPH,WindSpeedGustMPH,Humidity,HourlyPrecipIn,Conditions,Clouds,dailyrainin,SoftwareType,DateUTC
2013-02-12 00:00:00,48.8,43.2,30.15,North,355,0.0,0.0,81,0.00,,,0.00,WeatherCatV1.02B3,2013-02-12 06:00:00,
2013-02-12 00:05:00,49.0,43.4,30.16,North,355,0.0,0.0,81,0.00,,,0.00,WeatherCatV1.02B3,2013-02-12 06:05:00,
2013-02-12 00:10:00,49.1,43.5,30.16,North,355,0.0,0.0,81,0.00,,,0.00,WeatherCatV1.02B3,2013-02-12 06:10:00,
2013-02-12 00:15:00,49.1,44.2,30.17,North,355,0.0,0.0,83,0.00,,,0.00,WeatherCatV1.02B3,2013-02-12 06:15:00,
2013-02-12 00:20:00,49.1,43.8,30.18,North,355,0.0,0.0,82,0.00,,,0.00,WeatherCatV1.02B3,2013-02-12 06:20:00,
2013-02-12 00:25:00,49.0,44.1,30.18,North,355,0.0,0.0,83,0.00,,,0.00,WeatherCatV1.02B3,2013-02-12 06:25:00,
2013-02-12 00:30:00,49.0,44.4,30.18,North,355,0.0,0.0,84,0.00,,,0.00,WeatherCatV1.02B3,2013-02-12 06:30:00,
2013-02-12 00:35:00,48.9,44.3,30.18,North,355,0.0,0.0,84,0.00,,,0.00,WeatherCatV1.02B3,2013-02-12 06:35:00,
2013-02-12 00:40:00,48.8,44.2,30.17,North,355,0.0,0.0,84,0.00,,,0.00,WeatherCatV1.02B3,2013-02-12 06:40:00,
2013-02-12 00:45:00,48.8,44.5,30.17,North,355,0.0,0.0,85,0.00,,,0.00,WeatherCatV1.02B3,2013-02-12 06:45:00,
2013-02-12 00:50:00,48.7,43.8,30.16,North,355,0.0,0.0,83,0.00,,,0.00,WeatherCatV1.02B3,2013-02-12 06:50:00,
2013-02-12 00:52:00,48.6,43.4,30.16,North,355,0.0,0.0,82,0.00,,,0.00,WeatherCatV1.02B3,2013-02-12 06:52:00,
2013-02-12 00:57:00,48.7,43.5,30.15,North,355,0.0,0.0,82,0.00,,,0.00,WeatherCatV1.02B3,2013-02-12 06:57:00,
2013-02-12 01:02:00,48.7,43.5,30.15,North,355,0.0,0.0,82,0.00,,,0.00,WeatherCatV1.02B3,2013-02-12 07:02:00,
2013-02-12 01:07:00,48.8,43.2,30.16,North,355,0.0,0.0,81,0.00,,,0.00,WeatherCatV1.02B3,2013-02-12 07:07:00,
2013-02-12 01:12:00,48.9,43.3,30.17,North,355,0.0,0.0,81,0.00,,,0.00,WeatherCatV1.02B3,2013-02-12 07:12:00,
2013-02-12 01:17:00,48.9,43.3,30.17,North,355,0.0,0.0,81,0.00,,,0.00,WeatherCatV1.02B3,2013-02-12 07:17:00,
2013-02-12 01:22:00,48.9,44.0,30.16,North,355,0.0,0.0,83,0.00,,,0.00,WeatherCatV1.02B3,2013-02-12 07:22:00,
2013-02-12 01:27:00,48.8,43.6,30.16,North,355,0.0,0.0,82,0.00,,,0.00,WeatherCatV1.02B3,2013-02-12 07:27:00,
2013-02-12 01:32:00,48.7,43.1,30.17,North,355,0.0,0.0,81,0.00,,,0.00,WeatherCatV1.02B3,2013-02-12 07:32:00,
2013-02-12 01:37:00,48.8,44.2,30.16,North,355,0.0,0.0,84,0.00,,,0.00,WeatherCatV1.02B3,2013-02-12 07:37:00,
2013-02-12 01:43:00,48.6,43.7,30.16,North,355,0.0,0.0,83,0.00,,,0.00,WeatherCatV1.02B3,2013-02-12 07:43:00,
2013-02-12 01:49:00,48.6,43.4,30.15,North,355,0.0,0.0,82,0.00,,,0.00,WeatherCatV1.02B3,2013-02-12 07:49:00,
2013-02-12 01:54:00,48.6,43.4,30.16,North,355,0.0,0.0,82,0.00,,,0.00,WeatherCatV1.02B3,2013-02-12 07:54:00,
2013-02-12 01:59:00,48.6,43.4,30.16,North,355,0.0,0.0,82,0.00,,,0.00,WeatherCatV1.02B3,2013-02-12 07:59:00,
2013-02-12 02:04:00,48.6,43.4,30.18,North,355,0.0,0.0,82,0.00,,,0.00,WeatherCatV1.02B3,2013-02-12 08:04:00,
2013-02-12 02:09:00,48.7,43.5,30.17,North,355,0.0,0.0,82,0.00,,,0.00,WeatherCatV1.02B3,2013-02-12 08:09:00,
2013-02-12 02:14:00,48.7,44.4,30.18,North,355,0.0,0.0,85,0.00,,,0.00,WeatherCatV1.02B3,2013-02-12 08:14:00,
2013-02-12 02:19:00,48.4,44.4,30.17,North,355,0.0,0.0,86,0.00,,,0.00,WeatherCatV1.02B3,2013-02-12 08:19:00,
2013-02-12 02:24:00,48.3,44.0,30.17,North,355,0.0,0.0,85,0.00,,,0.00,WeatherCatV1.02B3,2013-02-12 08:24:00,
2013-02-12 02:29:00,48.2,43.6,30.16,North,355,0.0,0.0,84,0.00,,,0.00,WeatherCatV1.02B3,2013-02-12 08:29:00,
2013-02-12 02:34:00,48.2,43.0,30.14,East,84,0.0,0.0,82,0.00,,,0.00,WeatherCatV1.02B3,2013-02-12 08:34:00,
2013-02-12 02:39:00,48.4,42.8,30.16,NNE,28,0.0,0.0,81,0.00,,,0.00,WeatherCatV1.02B3,2013-02-12 08:39:00,
2013-02-12 02:44:00,48.5,42.9,30.16,ENE,78,0.0,0.0,81,0.00,,,0.00,WeatherCatV1.02B3,2013-02-12 08:44:00,
2013-02-12 02:49:00,48.6,42.7,30.17,ENE,78,0.0,0.0,80,0.00,,,0.00,WeatherCatV1.02B3,2013-02-12 08:49:00,
2013-02-12 02:54:00,48.6,42.7,30.17,ENE,78,0.0,0.0,80,0.00,,,0.00,WeatherCatV1.02B3,2013-02-12 08:54:00,
2013-02-12 02:59:00,48.7,42.8,30.17,ENE,78,0.0,0.0,80,0.00,,,0.00,WeatherCatV1.02B3,2013-02-12 08:59:00,
2013-02-12 03:04:00,48.6,43.0,30.15,ENE,78,0.0,1.0,81,0.00,,,0.00,WeatherCatV1.02B3,2013-02-12 09:04:00,
2013-02-12 03:09:00,48.4,43.2,30.15,East,83,0.0,2.0,82,0.00,,,0.00,WeatherCatV1.02B3,2013-02-12 09:09:00,
2013-02-12 03:14:00,48.3,43.4,30.16,East,83,2.0,2.0,83,0.00,,,0.00,WeatherCatV1.02B3,2013-02-12 09:14:00,
2013-02-12 03:19:00,48.2,43.9,30.15,NE,38,3.0,4.0,85,0.00,,,0.00,WeatherCatV1.02B3,2013-02-12 09:19:00,
2013-02-12 03:24:00,48.0,43.4,30.14,East,80,0.0,3.0,84,0.00,,,0.00,WeatherCatV1.02B3,2013-02-12 09:24:00,
2013-02-12 03:29:00,48.0,43.1,30.13,NE,56,1.0,4.0,83,0.00,,,0.00,WeatherCatV1.02B3,2013-02-12 09:29:00,
2013-02-12 03:34:00,48.0,43.1,30.12,ENE,74,0.0,4.0,83,0.00,,,0.00,WeatherCatV1.02B3,2013-02-12 09:34:00,
2013-02-12 03:39:00,48.0,43.1,30.13,East,93,0.0,1.0,83,0.00,,,0.00,WeatherCatV1.02B3,2013-02-12 09:39:00,
2013-02-12 03:44:00,48.1,43.5,30.12,NE,48,3.0,4.0,84,0.00,,,0.00,WeatherCatV1.02B3,2013-02-12 09:44:00,
2013-02-12 03:49:00,47.9,43.3,30.09,ESE,104,4.0,7.0,84,0.00,,,0.00,WeatherCatV1.02B3,2013-02-12 09:49:00,
2013-02-12 03:54:00,47.8,43.2,30.10,NE,44,3.0,4.0,84,0.00,,,0.00,WeatherCatV1.02B3,2013-02-12 09:54:00,
2013-02-12 03:59:00,47.8,43.2,30.09,NE,38,4.0,6.0,84,0.00,,,0.00,WeatherCatV1.02B3,2013-02-12 09:59:00,
2013-02-12 04:04:00,47.7,42.8,30.10,NNE,18,4.0,6.0,83,0.00,,,0.00,WeatherCatV1.02B3,2013-02-12 10:04:00,
2013-02-12 04:09:00,47.7,43.1,30.09,NNE,30,5.0,7.0,84,0.00,,,0.00,WeatherCatV1.02B3,2013-02-12 10:09:00,
2013-02-12 04:14:00,47.6,43.0,30.09,NNE,24,6.0,7.0,84,0.00,,,0.00,WeatherCatV1.02B3,2013-02-12 10:14:00,
2013-02-12 04:19:00,47.6,43.0,30.09,NE,35,4.0,6.0,84,0.00,,,0.00,WeatherCatV1.02B3,2013-02-12 10:19:00,
2013-02-12 04:24:00,47.6,43.0,30.10,NE,35,4.0,5.0,84,0.00,,,0.00,WeatherCatV1.02B3,2013-02-12 10:24:00,
2013-02-12 04:29:00,47.6,43.0,30.10,NE,52,5.0,5.0,84,0.00,,,0.00,WeatherCatV1.02B3,2013-02-12 10:29:00,
2013-02-12 04:34:00,47.4,42.8,30.09,NE,46,2.0,5.0,84,0.00,,,0.00,WeatherCatV1.02B3,2013-02-12 10:34:00,
2013-02-12 04:39:00,47.2,42.9,30.09,NE,46,2.0,5.0,85,0.00,,,0.00,WeatherCatV1.02B3,2013-02-12 10:39:00,
2013-02-12 04:44:00,47.0,42.7,30.09,NE,50,2.0,4.0,85,0.00,,,0.00,WeatherCatV1.02B3,2013-02-12 10:44:00,
2013-02-12 04:49:00,46.8,42.5,30.09,ENE,58,0.0,2.0,85,0.00,,,0.00,WeatherCatV1.02B3,2013-02-12 10:49:00,
2013-02-12 04:54:00,46.6,42.6,30.09,ENE,58,0.0,0.0,86,0.00,,,0.00,WeatherCatV1.02B3,2013-02-12 10:54:00,
2013-02-12 04:59:00,46.4,42.4,30.09,ENE,75,0.0,0.0,86,0.00,,,0.00,WeatherCatV1.02B3,2013-02-12 10:59:00,
2013-02-12 05:04:00,46.2,42.2,30.07,ENE,77,0.0,0.0,86,0.00,,,0.00,WeatherCatV1.02B3,2013-02-12 11:04:00,
2013-02-12 05:09:00,46.0,42.0,30.07,East,99,3.0,4.0,86,0.00,,,0.00,WeatherCatV1.02B3,2013-02-12 11:09:00,
2013-02-12 05:14:00,46.0,42.0,30.06,ENE,71,0.0,1.0,86,0.00,,,0.00,WeatherCatV1.02B3,2013-02-12 11:14:00,
2013-02-12 05:19:00,45.8,41.9,30.06,East,83,0.0,0.0,86,0.00,,,0.00,WeatherCatV1.02B3,2013-02-12 11:19:00,
2013-02-12 05:24:00,45.7,41.8,30.07,East,87,0.0,1.0,86,0.00,,,0.00,WeatherCatV1.02B3,2013-02-12 11:24:00,
2013-02-12 05:29:00,45.6,41.7,30.07,ESE,104,0.0,4.0,86,0.00,,,0.00,WeatherCatV1.02B3,2013-02-12 11:29:00,
2013-02-12 05:34:00,45.6,41.7,30.07,ESE,112,3.0,3.0,86,0.00,,,0.00,WeatherCatV1.02B3,2013-02-12 11:34:00,
2013-02-12 05:39:00,45.6,41.4,30.07,East,96,0.0,0.0,85,0.00,,,0.00,WeatherCatV1.02B3,2013-02-12 11:39:00,
2013-02-12 05:44:00,45.6,41.4,30.07,ENE,59,0.0,0.0,85,0.00,,,0.00,WeatherCatV1.02B3,2013-02-12 11:44:00,
2013-02-12 05:49:00,45.6,41.4,30.07,ENE,63,0.0,1.0,85,0.00,,,0.00,WeatherCatV1.02B3,2013-02-12 11:49:00,
2013-02-12 05:54:00,45.6,41.4,30.08,ENE,63,0.0,0.0,85,0.00,,,0.00,WeatherCatV1.02B3,2013-02-12 11:54:00,
2013-02-12 05:59:00,45.5,41.3,30.08,East,101,0.0,0.0,85,0.00,,,0.00,WeatherCatV1.02B3,2013-02-12 11:59:00,
2013-02-12 06:04:00,45.4,41.2,30.08,East,101,0.0,0.0,85,0.00,,,0.00,WeatherCatV1.02B3,2013-02-12 12:04:00,
2013-02-12 06:09:00,45.3,41.1,30.09,ENE,75,0.0,0.0,85,0.00,,,0.00,WeatherCatV1.02B3,2013-02-12 12:09:00,
2013-02-12 06:14:00,45.0,41.1,30.10,ENE,75,0.0,0.0,86,0.00,,,0.00,WeatherCatV1.02B3,2013-02-12 12:14:00,
2013-02-12 06:19:00,44.9,41.0,30.11,ENE,75,0.0,0.0,86,0.00,,,0.00,WeatherCatV1.02B3,2013-02-12 12:19:00,
2013-02-12 06:24:00,44.9,41.0,30.11,ENE,75,0.0,0.0,86,0.00,,,0.00,WeatherCatV1.02B3,2013-02-12 12:24:00,
2013-02-12 06:29:00,44.8,40.9,30.11,ENE,75,0.0,0.0,86,0.00,,,0.00,WeatherCatV1.02B3,2013-02-12 12:29:00,
2013-02-12 06:34:00,44.5,40.6,30.11,ENE,75,0.0,0.0,86,0.00,,,0.00,WeatherCatV1.02B3,2013-02-12 12:34:00,
2013-02-12 06:39:00,44.4,40.5,30.10,ENE,75,0.0,0.0,86,0.00,,,0.00,WeatherCatV1.02B3,2013-02-12 12:39:00,
2013-02-12 06:44:00,44.2,40.6,30.09,ENE,75,0.0,0.0,87,0.00,,,0.00,WeatherCatV1.02B3,2013-02-12 12:44:00,
2013-02-12 06:49:00,44.2,40.6,30.08,ENE,60,0.0,4.0,87,0.00,,,0.00,WeatherCatV1.02B3,2013-02-12 12:49:00,
2013-02-12 06:54:00,44.2,40.3,30.08,NE,43,3.0,4.0,86,0.00,,,0.00,WeatherCatV1.02B3,2013-02-12 12:54:00,
2013-02-12 06:59:00,44.3,40.4,30.08,NE,44,4.0,4.0,86,0.00,,,0.00,WeatherCatV1.02B3,2013-02-12 12:59:00,
2013-02-12 07:04:00,44.5,40.6,30.07,ENE,61,0.0,0.0,86,0.00,,,0.00,WeatherCatV1.02B3,2013-02-12 13:04:00,
2013-02-12 07:09:00,44.5,40.6,30.08,ENE,59,0.0,0.0,86,0.00,,,0.00,WeatherCatV1.02B3,2013-02-12 13:09:00,
2013-02-12 07:14:00,44.7,40.5,30.07,NE,46,3.0,5.0,85,0.00,,,0.00,WeatherCatV1.02B3,2013-02-12 13:14:00,
2013-02-12 07:19:00,44.9,40.7,30.06,NE,46,4.0,5.0,85,0.00,,,0.00,WeatherCatV1.02B3,2013-02-12 13:19:00,
2013-02-12 07:24:00,45.1,40.6,30.05,NE,44,5.0,7.0,84,0.00,,,0.00,WeatherCatV1.02B3,2013-02-12 13:24:00,
2013-02-12 07:29:00,45.4,40.9,30.05,NE,52,3.0,5.0,84,0.00,,,0.00,WeatherCatV1.02B3,2013-02-12 13:29:00,
2013-02-12 07:34:00,45.5,40.6,30.06,NE,36,3.0,7.0,83,0.00,,,0.00,WeatherCatV1.02B3,2013-02-12 13:34:00,
2013-02-12 07:39:00,45.8,40.9,30.07,NE,51,0.0,2.0,83,0.00,,,0.00,WeatherCatV1.02B3,2013-02-12 13:39:00,
2013-02-12 07:44:00,46.1,40.9,30.07,NE,39,1.0,4.0,82,0.00,,,0.00,WeatherCatV1.02B3,2013-02-12 13:44:00,
2013-02-12 07:49:00,46.5,41.3,30.07,NE,48,0.0,3.0,82,0.00,,,0.00,WeatherCatV1.02B3,2013-02-12 13:49:00,
2013-02-12 07:54:00,46.9,41.4,30.06,NE,51,3.0,5.0,81,0.00,,,0.00,WeatherCatV1.02B3,2013-02-12 13:54:00,
2013-02-12 07:59:00,47.3,41.1,30.05,ENE,59,3.0,9.0,79,0.00,,,0.00,WeatherCatV1.02B3,2013-02-12 13:59:00,
2013-02-12 08:04:00,47.5,41.0,30.06,NE,56,3.0,6.0,78,0.00,,,0.00,WeatherCatV1.02B3,2013-02-12 14:04:00,
2013-02-12 08:09:00,47.8,40.9,30.05,East,80,3.0,11.0,77,0.00,,,0.00,WeatherCatV1.02B3,2013-02-12 14:09:00,
2013-02-12 08:14:00,48.0,40.8,30.04,ENE,77,2.0,7.0,76,0.00,,,0.00,WeatherCatV1.02B3,2013-02-12 14:14:00,
2013-02-12 08:19:00,48.4,40.8,30.03,ENE,58,9.0,9.0,75,0.00,,,0.00,WeatherCatV1.02B3,2013-02-12 14:19:00,
2013-02-12 08:24:00,48.8,40.2,30.03,NNE,30,4.0,9.0,72,0.00,,,0.00,WeatherCatV1.02B3,2013-02-12 14:24:00,
2013-02-12 08:29:00,49.1,40.1,30.04,ENE,73,4.0,9.0,71,0.00,,,0.00,WeatherCatV1.02B3,2013-02-12 14:29:00,
2013-02-12 08:34:00,49.2,39.8,30.02,ENE,64,10.0,11.0,70,0.00,,,0.00,WeatherCatV1.02B3,2013-02-12 14:34:00,
2013-02-12 08:39:00,49.2,39.5,30.03,NNE,31,8.0,13.0,69,0.00,,,0.00,WeatherCatV1.02B3,2013-02-12 14:39:00,
2013-02-12 08:44:00,49.2,40.2,30.02,ENE,59,4.0,7.0,71,0.00,,,0.00,WeatherCatV1.02B3,2013-02-12 14:44:00,
2013-02-12 08:49:00,49.2,40.2,30.03,ENE,74,7.0,9.0,71,0.00,,,0.00,WeatherCatV1.02B3,2013-02-12 14:49:00,
2013-02-12 08:54:00,49.2,40.2,30.03,NE,55,5.0,10.0,71,0.00,,,0.00,WeatherCatV1.02B3,2013-02-12 14:54:00,
2013-02-12 08:59:00,49.2,40.2,30.04,East,95,6.0,7.0,71,0.00,,,0.00,WeatherCatV1.02B3,2013-02-12 14:59:00,
2013-02-12 09:04:00,49.2,40.2,30.05,ENE,76,8.0,9.0,71,0.00,,,0.00,WeatherCatV1.02B3,2013-02-12 15:04:00,
2013-02-12 09:09:00,49.2,40.2,30.06,ESE,103,5.0,9.0,71,0.00,,,0.00,WeatherCatV1.02B3,2013-02-12 15:09:00,
2013-02-12 09:14:00,49.1,40.1,30.06,East,86,5.0,7.0,71,0.00,,,0.00,WeatherCatV1.02B3,2013-02-12 15:14:00,
2013-02-12 09:19:00,49.1,40.1,30.07,East,92,7.0,9.0,71,0.00,,,0.00,WeatherCatV1.02B3,2013-02-12 15:19:00,
2013-02-12 09:24:00,49.1,40.5,30.07,East,82,6.0,6.0,72,0.00,,,0.00,WeatherCatV1.02B3,2013-02-12 15:24:00,
2013-02-12 09:29:00,49.1,40.8,30.07,ESE,105,5.0,9.0,73,0.00,,,0.00,WeatherCatV1.02B3,2013-02-12 15:29:00,
2013-02-12 09:34:00,49.2,40.9,30.05,ENE,69,2.0,8.0,73,0.00,,,0.00,WeatherCatV1.02B3,2013-02-12 15:34:00,
2013-02-12 09:39:00,49.2,40.9,30.05,ENE,59,3.0,5.0,73,0.00,,,0.00,WeatherCatV1.02B3,2013-02-12 15:39:00,
2013-02-12 09:44:00,49.1,40.8,30.05,NE,44,4.0,8.0,73,0.00,,,0.00,WeatherCatV1.02B3,2013-02-12 15:44:00,
2013-02-12 09:49:00,49.1,40.8,30.04,NE,53,0.0,5.0,73,0.00,,,0.00,WeatherCatV1.02B3,2013-02-12 15:49:00,
2013-02-12 09:54:00,49.1,40.8,30.05,NE,49,0.0,7.0,73,0.00,,,0.00,WeatherCatV1.02B3,2013-02-12 15:54:00,
2013-02-12 09:59:00,49.1,40.8,30.06,East,86,0.0,6.0,73,0.00,,,0.00,WeatherCatV1.02B3,2013-02-12 15:59:00,
2013-02-12 10:04:00,49.2,40.9,30.08,East,98,5.0,5.0,73,0.00,,,0.00,WeatherCatV1.02B3,2013-02-12 16:04:00,
2013-02-12 10:09:00,49.2,40.9,30.06,ENE,67,0.0,4.0,73,0.00,,,0.00,WeatherCatV1.02B3,2013-02-12 16:09:00,
2013-02-12 10:15:00,49.2,40.9,30.05,NE,54,2.0,5.0,73,0.00,,,0.00,WeatherCatV1.02B3,2013-02-12 16:15:00,
2013-02-12 10:20:00,49.2,40.9,30.06,NE,34,5.0,5.0,73,0.00,,,0.00,WeatherCatV1.02B3,2013-02-12 16:20:00,
2013-02-12 10:25:00,49.1,40.5,30.02,NE,46,7.0,11.0,72,0.00,,,0.00,WeatherCatV1.02B3,2013-02-12 16:25:00,
2013-02-12 10:30:00,49.1,40.5,30.02,NE,34,6.0,8.0,72,0.00,,,0.00,WeatherCatV1.02B3,2013-02-12 16:30:00,
2013-02-12 10:35:00,49.2,40.6,30.07,ENE,59,5.0,7.0,72,0.00,,,0.00,WeatherCatV1.02B3,2013-02-12 16:35:00,
2013-02-12 10:40:00,49.2,40.6,30.08,East,92,0.0,2.0,72,0.00,,,0.00,WeatherCatV1.02B3,2013-02-12 16:40:00,
2013-02-12 10:45:00,49.2,40.6,30.08,ENE,70,0.0,0.0,72,0.00,,,0.00,WeatherCatV1.02B3,2013-02-12 16:45:00,
2013-02-12 10:50:00,49.3,40.7,30.09,East,84,0.0,0.0,72,0.00,,,0.01,WeatherCatV1.02B3,2013-02-12 16:50:00,
2013-02-12 10:55:00,49.2,41.3,30.08,East,84,0.0,0.0,74,0.09,,,0.02,WeatherCatV1.02B3,2013-02-12 16:55:00,
2013-02-12 11:00:00,49.1,41.5,30.09,East,81,0.0,0.0,75,0.09,,,0.02,WeatherCatV1.02B3,2013-02-12 17:00:00,
2013-02-12 11:05:00,49.0,42.1,30.08,East,98,0.0,2.0,77,0.07,,,0.03,WeatherCatV1.02B3,2013-02-12 17:05:00,
2013-02-12 11:10:00,48.8,42.6,30.07,East,98,0.0,0.0,79,0.07,,,0.03,WeatherCatV1.02B3,2013-02-12 17:10:00,
2013-02-12 11:15:00,48.8,42.9,30.06,East,92,0.0,3.0,80,0.06,,,0.04,WeatherCatV1.02B3,2013-02-12 17:15:00,
2013-02-12 11:20:00,48.9,42.7,30.06,ENE,78,1.0,8.0,79,0.06,,,0.04,WeatherCatV1.02B3,2013-02-12 17:20:00,
2013-02-12 11:25:00,49.1,42.9,30.05,East,93,6.0,7.0,79,0.05,,,0.04,WeatherCatV1.02B3,2013-02-12 17:25:00,
2013-02-12 11:30:00,49.1,42.5,30.05,East,82,0.0,5.0,78,0.00,,,0.04,WeatherCatV1.02B3,2013-02-12 17:30:00,
2013-02-12 11:35:00,49.2,41.6,30.04,NE,40,6.0,10.0,75,0.00,,,0.04,WeatherCatV1.02B3,2013-02-12 17:35:00,
2013-02-12 11:40:00,49.3,41.4,30.02,NNE,32,9.0,12.0,74,0.00,,,0.04,WeatherCatV1.02B3,2013-02-12 17:40:00,
2013-02-12 11:45:00,49.4,41.8,30.03,NNE,21,7.0,11.0,75,0.00,,,0.04,WeatherCatV1.02B3,2013-02-12 17:45:00,
2013-02-12 11:50:00,49.6,40.9,30.02,East,93,7.0,12.0,72,0.00,,,0.04,WeatherCatV1.02B3,2013-02-12 17:50:00,
2013-02-12 11:55:00,49.8,40.4,30.01,ENE,61,10.0,14.0,70,0.00,,,0.04,WeatherCatV1.02B3,2013-02-12 17:55:00,
2013-02-12 12:00:00,50.0,41.0,30.02,NE,53,8.0,11.0,71,0.00,,,0.04,WeatherCatV1.02B3,2013-02-12 18:00:00,
2013-02-12 12:05:00,50.2,40.8,30.01,NE,47,5.0,13.0,70,0.00,,,0.04,WeatherCatV1.02B3,2013-02-12 18:05:00,
2013-02-12 12:10:00,50.3,41.3,30.01,ENE,69,4.0,11.0,71,0.00,,,0.04,WeatherCatV1.02B3,2013-02-12 18:10:00,
2013-02-12 12:15:00,50.3,40.9,30.01,ENE,78,5.0,9.0,70,0.00,,,0.04,WeatherCatV1.02B3,2013-02-12 18:15:00,
2013-02-12 12:20:00,50.3,39.8,30.02,East,98,8.0,11.0,67,0.00,,,0.04,WeatherCatV1.02B3,2013-02-12 18:20:00,
2013-02-12 12:25:00,50.2,40.1,30.03,ENE,57,8.0,10.0,68,0.00,,,0.04,WeatherCatV1.02B3,2013-02-12 18:25:00,
2013-02-12 12:30:00,50.1,40.3,30.03,NE,55,3.0,8.0,69,0.00,,,0.04,WeatherCatV1.02B3,2013-02-12 18:30:00,
2013-02-12 12:35:00,50.0,40.2,30.03,ENE,74,7.0,7.0,69,0.00,,,0.04,WeatherCatV1.02B3,2013-02-12 18:35:00,
2013-02-12 12:40:00,50.0,41.0,30.02,East,83,5.0,10.0,71,0.00,,,0.04,WeatherCatV1.02B3,2013-02-12 18:40:00,
2013-02-12 12:45:00,49.9,41.2,30.02,East,82,9.0,9.0,72,0.00,,,0.04,WeatherCatV1.02B3,2013-02-12 18:45:00,
2013-02-12 12:50:00,49.9,41.6,30.01,NE,40,4.0,8.0,73,0.00,,,0.04,WeatherCatV1.02B3,2013-02-12 18:50:00,
2013-02-12 12:55:00,49.9,41.2,30.01,ENE,57,7.0,10.0,72,0.00,,,0.05,WeatherCatV1.02B3,2013-02-12 18:55:00,
2013-02-12 13:00:00,49.7,41.8,29.99,NE,48,8.0,10.0,74,0.00,,,0.05,WeatherCatV1.02B3,2013-02-12 19:00:00,
2013-02-12 13:05:00,49.6,41.7,29.98,NNE,32,10.0,12.0,74,0.00,,,0.05,WeatherCatV1.02B3,2013-02-12 19:05:00,
2013-02-12 13:10:00,49.6,41.3,29.97,NE,56,5.0,10.0,73,0.00,,,0.05,WeatherCatV1.02B3,2013-02-12 19:10:00,
2013-02-12 13:15:00,49.4,41.5,29.96,NE,49,4.0,12.0,74,0.00,,,0.05,WeatherCatV1.02B3,2013-02-12 19:15:00,
2013-02-12 13:20:00,49.3,41.4,29.96,NE,47,8.0,8.0,74,0.00,,,0.05,WeatherCatV1.02B3,2013-02-12 19:20:00,
2013-02-12 13:25:00,49.2,41.3,29.96,ENE,63,7.0,9.0,74,0.00,,,0.05,WeatherCatV1.02B3,2013-02-12 19:25:00,
2013-02-12 13:30:00,49.3,41.0,29.95,NE,52,7.0,10.0,73,0.00,,,0.05,WeatherCatV1.02B3,2013-02-12 19:30:00,
2013-02-12 13:35:00,49.4,41.1,29.94,ENE,77,4.0,13.0,73,0.00,,,0.05,WeatherCatV1.02B3,2013-02-12 19:35:00,
2013-02-12 13:40:00,49.4,41.1,29.95,East,89,3.0,13.0,73,0.00,,,0.05,WeatherCatV1.02B3,2013-02-12 19:40:00,
2013-02-12 13:45:00,49.4,40.8,29.94,East,92,9.0,13.0,72,0.00,,,0.05,WeatherCatV1.02B3,2013-02-12 19:45:00,
2013-02-12 13:50:00,49.3,41.7,29.93,NE,36,11.0,12.0,75,0.00,,,0.05,WeatherCatV1.02B3,2013-02-12 19:50:00,
2013-02-12 13:55:00,49.0,42.1,29.93,East,86,5.0,11.0,77,0.00,,,0.06,WeatherCatV1.02B3,2013-02-12 19:55:00,
2013-02-12 14:00:00,48.7,41.5,29.94,East,79,6.0,13.0,76,0.00,,,0.06,WeatherCatV1.02B3,2013-02-12 20:00:00,
2013-02-12 14:05:00,48.5,41.6,29.94,ESE,107,5.0,10.0,77,0.00,,,0.06,WeatherCatV1.02B3,2013-02-12 20:05:00,
2013-02-12 14:10:00,48.4,42.2,29.93,East,96,6.0,11.0,79,0.00,,,0.07,WeatherCatV1.02B3,2013-02-12 20:10:00,
2013-02-12 14:15:00,48.1,41.9,29.93,ESE,111,7.0,14.0,79,0.00,,,0.07,WeatherCatV1.02B3,2013-02-12 20:15:00,
2013-02-12 14:20:00,47.8,41.3,29.93,NE,54,9.0,12.0,78,0.00,,,0.07,WeatherCatV1.02B3,2013-02-12 20:20:00,
2013-02-12 14:25:00,47.6,41.1,29.92,East,98,9.0,11.0,78,0.00,,,0.07,WeatherCatV1.02B3,2013-02-12 20:25:00,
2013-02-12 14:30:00,47.6,41.1,29.92,ENE,71,4.0,10.0,78,0.00,,,0.07,WeatherCatV1.02B3,2013-02-12 20:30:00,
2013-02-12 14:35:00,47.6,41.4,29.91,East,85,6.0,7.0,79,0.00,,,0.07,WeatherCatV1.02B3,2013-02-12 20:35:00,
2013-02-12 14:40:00,47.5,41.3,29.91,East,100,6.0,11.0,79,0.00,,,0.07,WeatherCatV1.02B3,2013-02-12 20:40:00,
2013-02-12 14:45:00,47.3,41.1,29.91,ENE,61,7.0,10.0,79,0.00,,,0.08,WeatherCatV1.02B3,2013-02-12 20:45:00,
2013-02-12 14:50:00,46.9,41.1,29.90,East,87,5.0,11.0,80,0.07,,,0.09,WeatherCatV1.02B3,2013-02-12 20:50:00,
2013-02-12 14:55:00,46.7,41.5,29.92,NE,53,7.0,8.0,82,0.11,,,0.09,WeatherCatV1.02B3,2013-02-12 20:55:00,
2013-02-12 15:00:00,46.4,41.2,29.93,ENE,73,3.0,7.0,82,0.32,,,0.12,WeatherCatV1.02B3,2013-02-12 21:00:00,
2013-02-12 15:05:00,46.0,41.1,29.92,NE,46,3.0,10.0,83,0.36,,,0.14,WeatherCatV1.02B3,2013-02-12 21:05:00,
2013-02-12 15:10:00,45.8,41.2,29.93,NE,45,0.0,8.0,84,0.21,,,0.16,WeatherCatV1.02B3,2013-02-12 21:10:00,
2013-02-12 15:15:00,45.7,41.5,29.94,East,80,3.0,7.0,85,0.32,,,0.18,WeatherCatV1.02B3,2013-02-12 21:15:00,
2013-02-12 15:20:00,45.5,41.3,29.93,ENE,69,5.0,8.0,85,0.16,,,0.19,WeatherCatV1.02B3,2013-02-12 21:20:00,
2013-02-12 15:25:00,45.4,41.5,29.92,ENE,61,5.0,6.0,86,0.13,,,0.20,WeatherCatV1.02B3,2013-02-12 21:25:00,
2013-02-12 15:30:00,45.3,41.7,29.92,ENE,65,4.0,8.0,87,0.06,,,0.20,WeatherCatV1.02B3,2013-02-12 21:30:00,
2013-02-12 15:35:00,45.3,41.7,29.90,ENE,64,5.0,10.0,87,0.05,,,0.21,WeatherCatV1.02B3,2013-02-12 21:35:00,
2013-02-12 15:40:00,45.4,42.1,29.89,East,82,6.0,9.0,88,0.05,,,0.21,WeatherCatV1.02B3,2013-02-12 21:40:00,
2013-02-12 15:45:00,45.4,42.1,29.89,East,96,6.0,13.0,88,0.04,,,0.21,WeatherCatV1.02B3,2013-02-12 21:45:00,
2013-02-12 15:50:00,45.4,42.1,29.90,East,85,7.0,7.0,88,0.00,,,0.21,WeatherCatV1.02B3,2013-02-12 21:50:00,
2013-02-12 15:55:00,45.3,42.3,29.91,ENE,63,9.0,11.0,89,0.00,,,0.21,WeatherCatV1.02B3,2013-02-12 21:55:00,
2013-02-12 16:00:00,45.3,42.3,29.89,ENE,74,4.0,12.0,89,0.00,,,0.21,WeatherCatV1.02B3,2013-02-12 22:00:00,
2013-02-12 16:05:00,45.3,42.3,29.89,ESE,110,9.0,10.0,89,0.00,,,0.21,WeatherCatV1.02B3,2013-02-12 22:05:00,
2013-02-12 16:10:00,45.3,42.0,29.88,East,94,9.0,9.0,88,0.00,,,0.21,WeatherCatV1.02B3,2013-02-12 22:10:00,
2013-02-12 16:15:00,45.3,42.3,29.87,East,94,10.0,13.0,89,0.00,,,0.21,WeatherCatV1.02B3,2013-02-12 22:15:00,
2013-02-12 16:20:00,45.3,42.3,29.88,East,89,9.0,10.0,89,0.00,,,0.21,WeatherCatV1.02B3,2013-02-12 22:20:00,
2013-02-12 16:25:00,45.3,42.3,29.86,ESE,105,9.0,13.0,89,0.00,,,0.21,WeatherCatV1.02B3,2013-02-12 22:25:00,
2013-02-12 16:30:00,45.3,42.3,29.86,ENE,76,8.0,16.0,89,0.00,,,0.21,WeatherCatV1.02B3,2013-02-12 22:30:00,
2013-02-12 16:35:00,45.3,42.3,29.88,ENE,61,7.0,9.0,89,0.00,,,0.21,WeatherCatV1.02B3,2013-02-12 22:35:00,
2013-02-12 16:40:00,45.4,42.3,29.88,ENE,72,2.0,12.0,89,0.00,,,0.21,WeatherCatV1.02B3,2013-02-12 22:40:00,
2013-02-12 16:45:00,45.4,42.3,29.88,ENE,63,5.0,10.0,89,0.00,,,0.21,WeatherCatV1.02B3,2013-02-12 22:45:00,
2013-02-12 16:50:00,45.4,42.3,29.89,ENE,72,5.0,9.0,89,0.00,,,0.21,WeatherCatV1.02B3,2013-02-12 22:50:00,
2013-02-12 16:55:00,45.4,42.1,29.89,NE,41,9.0,10.0,88,0.00,,,0.21,WeatherCatV1.02B3,2013-02-12 22:55:00,
2013-02-12 17:00:00,45.5,42.2,29.88,ENE,71,8.0,13.0,88,0.00,,,0.21,WeatherCatV1.02B3,2013-02-12 23:00:00,
2013-02-12 17:05:00,45.5,42.4,29.89,ENE,65,7.0,9.0,89,0.00,,,0.21,WeatherCatV1.02B3,2013-02-12 23:05:00,
2013-02-12 17:10:00,45.5,42.2,29.89,NE,49,7.0,9.0,88,0.00,,,0.21,WeatherCatV1.02B3,2013-02-12 23:10:00,
2013-02-12 17:15:00,45.6,42.3,29.89,NE,49,4.0,8.0,88,0.00,,,0.21,WeatherCatV1.02B3,2013-02-12 23:15:00,
2013-02-12 17:20:00,45.6,42.3,29.88,East,89,6.0,7.0,88,0.00,,,0.21,WeatherCatV1.02B3,2013-02-12 23:20:00,
2013-02-12 17:25:00,45.6,42.3,29.87,NE,55,2.0,9.0,88,0.00,,,0.21,WeatherCatV1.02B3,2013-02-12 23:25:00,
2013-02-12 17:30:00,45.5,42.2,29.87,ENE,72,7.0,11.0,88,0.00,,,0.21,WeatherCatV1.02B3,2013-02-12 23:30:00,
2013-02-12 17:35:00,45.5,42.2,29.87,NNE,32,6.0,10.0,88,0.00,,,0.21,WeatherCatV1.02B3,2013-02-12 23:35:00,
2013-02-12 17:40:00,45.5,42.2,29.87,NE,46,9.0,12.0,88,0.00,,,0.21,WeatherCatV1.02B3,2013-02-12 23:40:00,
2013-02-12 17:45:00,45.6,42.3,29.87,ENE,74,5.0,10.0,88,0.00,,,0.21,WeatherCatV1.02B3,2013-02-12 23:45:00,
2013-02-12 17:50:00,45.6,42.3,29.86,NE,42,4.0,8.0,88,0.00,,,0.21,WeatherCatV1.02B3,2013-02-12 23:50:00,
2013-02-12 17:55:00,45.6,42.3,29.87,ENE,69,8.0,8.0,88,0.00,,,0.21,WeatherCatV1.02B3,2013-02-12 23:55:00,
2013-02-12 18:00:00,45.6,42.0,29.86,East,80,3.0,12.0,87,0.00,,,0.21,WeatherCatV1.02B3,2013-02-13 00:00:00,
2013-02-12 18:05:00,45.7,42.1,29.87,ENE,76,5.0,8.0,87,0.00,,,0.21,WeatherCatV1.02B3,2013-02-13 00:05:00,
2013-02-12 18:10:00,45.7,42.1,29.87,ENE,76,5.0,5.0,87,0.00,,,0.21,WeatherCatV1.02B3,2013-02-13 00:10:00,
2013-02-12 18:15:00,45.8,41.9,29.87,NE,55,7.0,12.0,86,0.00,,,0.21,WeatherCatV1.02B3,2013-02-13 00:15:00,
2013-02-12 18:20:00,45.9,42.0,29.87,ENE,61,14.0,14.0,86,0.00,,,0.21,WeatherCatV1.02B3,2013-02-13 00:20:00,
2013-02-12 18:25:00,45.9,42.0,29.87,East,85,6.0,9.0,86,0.00,,,0.21,WeatherCatV1.02B3,2013-02-13 00:25:00,
2013-02-12 18:30:00,45.9,42.0,29.87,ENE,63,4.0,11.0,86,0.00,,,0.21,WeatherCatV1.02B3,2013-02-13 00:30:00,
2013-02-12 18:35:00,45.9,42.0,29.86,NE,43,10.0,10.0,86,0.00,,,0.21,WeatherCatV1.02B3,2013-02-13 00:35:00,
2013-02-12 18:40:00,45.9,42.0,29.86,ENE,70,7.0,8.0,86,0.00,,,0.21,WeatherCatV1.02B3,2013-02-13 00:40:00,
2013-02-12 18:45:00,45.9,42.0,29.86,NE,53,3.0,8.0,86,0.00,,,0.21,WeatherCatV1.02B3,2013-02-13 00:45:00,
2013-02-12 18:50:00,45.9,42.0,29.86,NE,48,6.0,12.0,86,0.00,,,0.21,WeatherCatV1.02B3,2013-02-13 00:50:00,
2013-02-12 18:55:00,45.9,41.6,29.86,ENE,60,4.0,8.0,85,0.00,,,0.21,WeatherCatV1.02B3,2013-02-13 00:55:00,
2013-02-12 19:00:00,45.9,41.6,29.86,ENE,66,2.0,11.0,85,0.00,,,0.21,WeatherCatV1.02B3,2013-02-13 01:00:00,
2013-02-12 19:05:00,45.9,41.6,29.86,East,82,6.0,9.0,85,0.00,,,0.21,WeatherCatV1.02B3,2013-02-13 01:05:00,
2013-02-12 19:10:00,45.8,41.9,29.86,NE,48,3.0,9.0,86,0.00,,,0.21,WeatherCatV1.02B3,2013-02-13 01:10:00,
2013-02-12 19:15:00,45.7,41.8,29.86,NE,52,5.0,9.0,86,0.00,,,0.21,WeatherCatV1.02B3,2013-02-13 01:15:00,
2013-02-12 19:20:00,45.6,41.7,29.85,NE,43,8.0,10.0,86,0.00,,,0.21,WeatherCatV1.02B3,2013-02-13 01:20:00,
2013-02-12 19:25:00,45.6,41.7,29.85,East,94,5.0,10.0,86,0.00,,,0.21,WeatherCatV1.02B3,2013-02-13 01:25:00,
2013-02-12 19:30:00,45.5,41.9,29.85,ENE,77,9.0,10.0,87,0.00,,,0.21,WeatherCatV1.02B3,2013-02-13 01:30:00,
2013-02-12 19:35:00,45.5,41.9,29.85,ENE,58,7.0,10.0,87,0.00,,,0.21,WeatherCatV1.02B3,2013-02-13 01:35:00,
2013-02-12 19:40:00,45.4,42.1,29.86,ENE,76,2.0,9.0,88,0.00,,,0.21,WeatherCatV1.02B3,2013-02-13 01:40:00,
2013-02-12 19:45:00,45.3,42.0,29.85,ENE,61,5.0,10.0,88,0.00,,,0.21,WeatherCatV1.02B3,2013-02-13 01:45:00,
2013-02-12 19:50:00,45.2,42.2,29.86,NE,41,6.0,7.0,89,0.00,,,0.21,WeatherCatV1.02B3,2013-02-13 01:50:00,
2013-02-12 19:55:00,45.0,42.2,29.85,East,94,5.0,9.0,90,0.00,,,0.21,WeatherCatV1.02B3,2013-02-13 01:55:00,
2013-02-12 20:00:00,44.9,42.1,29.85,ENE,77,7.0,7.0,90,0.00,,,0.21,WeatherCatV1.02B3,2013-02-13 02:00:00,
2013-02-12 20:05:00,44.8,42.3,29.84,ENE,72,4.0,13.0,91,0.00,,,0.21,WeatherCatV1.02B3,2013-02-13 02:05:00,
2013-02-12 20:10:00,44.7,42.5,29.83,East,86,3.0,6.0,92,0.00,,,0.22,WeatherCatV1.02B3,2013-02-13 02:10:00,
2013-02-12 20:15:00,44.6,42.4,29.83,NE,51,4.0,12.0,92,0.00,,,0.22,WeatherCatV1.02B3,2013-02-13 02:15:00,
2013-02-12 20:20:00,44.5,42.6,29.82,ENE,58,10.0,11.0,93,0.00,,,0.22,WeatherCatV1.02B3,2013-02-13 02:20:00,
2013-02-12 20:25:00,44.5,42.9,29.82,ENE,59,3.0,13.0,94,0.00,,,0.22,WeatherCatV1.02B3,2013-02-13 02:25:00,
2013-02-12 20:30:00,44.5,42.9,29.82,ENE,61,12.0,12.0,94,0.00,,,0.22,WeatherCatV1.02B3,2013-02-13 02:30:00,
2013-02-12 20:35:00,44.5,42.9,29.83,ENE,73,4.0,7.0,94,0.00,,,0.22,WeatherCatV1.02B3,2013-02-13 02:35:00,
2013-02-12 20:40:00,44.5,42.9,29.82,ENE,72,9.0,10.0,94,0.00,,,0.22,WeatherCatV1.02B3,2013-02-13 02:40:00,
2013-02-12 20:45:00,44.5,43.2,29.82,East,86,5.0,9.0,95,0.00,,,0.22,WeatherCatV1.02B3,2013-02-13 02:45:00,
2013-02-12 20:50:00,44.6,43.3,29.83,ENE,73,9.0,9.0,95,0.00,,,0.22,WeatherCatV1.02B3,2013-02-13 02:50:00,
2013-02-12 20:55:00,44.6,43.3,29.83,ENE,69,9.0,9.0,95,0.00,,,0.22,WeatherCatV1.02B3,2013-02-13 02:55:00,
2013-02-12 21:00:00,44.6,43.3,29.84,East,93,6.0,6.0,95,0.00,,,0.22,WeatherCatV1.02B3,2013-02-13 03:00:00,
2013-02-12 21:05:00,44.6,43.3,29.83,ENE,61,1.0,6.0,95,0.00,,,0.22,WeatherCatV1.02B3,2013-02-13 03:05:00,
2013-02-12 21:10:00,44.6,43.3,29.84,East,86,6.0,6.0,95,0.00,,,0.22,WeatherCatV1.02B3,2013-02-13 03:10:00,
2013-02-12 21:15:00,44.7,43.4,29.85,ENE,58,3.0,7.0,95,0.00,,,0.22,WeatherCatV1.02B3,2013-02-13 03:15:00,
2013-02-12 21:20:00,44.7,43.4,29.85,NE,43,0.0,0.0,95,0.00,,,0.22,WeatherCatV1.02B3,2013-02-13 03:20:00,
2013-02-12 21:25:00,44.7,43.4,29.84,ENE,74,0.0,7.0,95,0.00,,,0.22,WeatherCatV1.02B3,2013-02-13 03:25:00,
2013-02-12 21:30:00,44.7,43.4,29.84,ENE,67,0.0,0.0,95,0.00,,,0.22,WeatherCatV1.02B3,2013-02-13 03:30:00,
2013-02-12 21:35:00,44.7,43.4,29.85,East,80,5.0,5.0,95,0.00,,,0.22,WeatherCatV1.02B3,2013-02-13 03:35:00,
2013-02-12 21:40:00,44.7,43.4,29.84,East,82,0.0,5.0,95,0.00,,,0.22,WeatherCatV1.02B3,2013-02-13 03:40:00,
2013-02-12 21:45:00,44.7,43.4,29.84,ESE,103,0.0,0.0,95,0.00,,,0.22,WeatherCatV1.02B3,2013-02-13 03:45:00,
2013-02-12 21:50:00,44.7,43.4,29.84,ESE,106,4.0,4.0,95,0.00,,,0.22,WeatherCatV1.02B3,2013-02-13 03:50:00,
2013-02-12 21:55:00,44.7,43.4,29.84,ESE,103,0.0,0.0,95,0.00,,,0.22,WeatherCatV1.02B3,2013-02-13 03:55:00,
2013-02-12 22:00:00,44.7,43.4,29.84,ESE,103,0.0,0.0,95,0.00,,,0.22,WeatherCatV1.02B3,2013-02-13 04:00:00,
2013-02-12 22:05:00,44.6,43.5,29.84,ESE,103,0.0,0.0,96,0.00,,,0.22,WeatherCatV1.02B3,2013-02-13 04:05:00,
2013-02-12 22:10:00,44.6,43.5,29.84,ESE,103,0.0,0.0,96,0.00,,,0.22,WeatherCatV1.02B3,2013-02-13 04:10:00,
2013-02-12 22:15:00,44.7,43.6,29.83,ESE,103,0.0,0.0,96,0.00,,,0.22,WeatherCatV1.02B3,2013-02-13 04:15:00,
2013-02-12 22:20:00,44.7,43.6,29.83,ESE,103,0.0,0.0,96,0.00,,,0.22,WeatherCatV1.02B3,2013-02-13 04:20:00,
2013-02-12 22:25:00,44.7,43.6,29.83,ESE,103,0.0,0.0,96,0.00,,,0.22,WeatherCatV1.02B3,2013-02-13 04:25:00,
2013-02-12 22:30:00,44.7,43.6,29.84,ESE,103,0.0,0.0,96,0.00,,,0.22,WeatherCatV1.02B3,2013-02-13 04:30:00,
2013-02-12 22:35:00,44.7,43.6,29.84,ESE,103,0.0,0.0,96,0.00,,,0.23,WeatherCatV1.02B3,2013-02-13 04:35:00,
2013-02-12 22:40:00,44.7,43.6,29.84,ESE,103,0.0,0.0,96,0.00,,,0.23,WeatherCatV1.02B3,2013-02-13 04:40:00,
2013-02-12 22:45:00,44.7,43.6,29.83,ESE,103,0.0,0.0,96,0.00,,,0.23,WeatherCatV1.02B3,2013-02-13 04:45:00,
2013-02-12 22:50:00,44.6,43.5,29.84,ESE,103,0.0,0.0,96,0.00,,,0.23,WeatherCatV1.02B3,2013-02-13 04:50:00,
2013-02-12 22:55:00,44.6,43.5,29.84,ESE,103,0.0,0.0,96,0.00,,,0.23,WeatherCatV1.02B3,2013-02-13 04:55:00,
2013-02-12 23:00:00,44.7,43.6,29.84,ESE,103,0.0,0.0,96,0.00,,,0.23,WeatherCatV1.02B3,2013-02-13 05:00:00,
2013-02-12 23:05:00,44.7,43.6,29.84,ESE,103,0.0,0.0,96,0.00,,,0.23,WeatherCatV1.02B3,2013-02-13 05:05:00,
2013-02-12 23:10:00,44.7,43.6,29.84,ESE,103,0.0,0.0,96,0.00,,,0.23,WeatherCatV1.02B3,2013-02-13 05:10:00,
2013-02-12 23:15:00,44.7,43.6,29.84,ESE,103,0.0,0.0,96,0.00,,,0.24,WeatherCatV1.02B3,2013-02-13 05:15:00,
2013-02-12 23:20:00,44.7,43.6,29.85,ESE,103,0.0,0.0,96,0.00,,,0.24,WeatherCatV1.02B3,2013-02-13 05:20:00,
2013-02-12 23:25:00,44.8,43.7,29.85,ESE,103,0.0,0.0,96,0.00,,,0.24,WeatherCatV1.02B3,2013-02-13 05:25:00,
2013-02-12 23:30:00,44.8,43.7,29.85,ESE,103,0.0,0.0,96,0.00,,,0.24,WeatherCatV1.02B3,2013-02-13 05:30:00,
2013-02-12 23:35:00,44.9,43.8,29.85,ESE,103,0.0,0.0,96,0.00,,,0.24,WeatherCatV1.02B3,2013-02-13 05:35:00,
2013-02-12 23:40:00,44.8,43.7,29.85,ESE,103,0.0,0.0,96,0.00,,,0.24,WeatherCatV1.02B3,2013-02-13 05:40:00,
2013-02-12 23:45:00,44.8,44.0,29.85,ESE,103,0.0,0.0,97,0.00,,,0.24,WeatherCatV1.02B3,2013-02-13 05:45:00,
2013-02-12 23:50:00,44.8,44.0,29.84,ESE,103,0.0,0.0,97,0.00,,,0.24,WeatherCatV1.02B3,2013-02-13 05:50:00,
2013-02-12 23:55:00,44.7,43.9,29.84,ESE,103,0.0,0.0,97,0.00,,,0.24,WeatherCatV1.02B3,2013-02-13 05:55:00,